sensor_id;sensor_type;location;lat;lon;timestamp;P1;durP1;ratioP1;P2;durP2;ratioP2
66371;SDS011;53168;51.146;17.120;2024-02-21T00:01:27;7.79;;;6.93;;
66371;SDS011;53168;51.146;17.120;2024-02-21T00:04:01;8.67;;;7.58;;
66371;SDS011;53168;51.146;17.120;2024-02-21T00:06:36;8.28;;;7.29;;
66371;SDS011;53168;51.146;17.120;2024-02-21T00:09:10;8.52;;;7.43;;
66371;SDS011;53168;51.146;17.120;2024-02-21T00:11:44;9.28;;;7.93;;
66371;SDS011;53168;51.146;17.120;2024-02-21T00:14:18;7.74;;;6.82;;
66371;SDS011;53168;51.146;17.120;2024-02-21T00:16:52;7.63;;;6.56;;
66371;SDS011;53168;51.146;17.120;2024-02-21T00:19:26;7.42;;;6.44;;
66371;SDS011;53168;51.146;17.120;2024-02-21T00:22:01;7.07;;;6.04;;
66371;SDS011;53168;51.146;17.120;2024-02-21T00:24:36;6.77;;;5.88;;
66371;SDS011;53168;51.146;17.120;2024-02-21T00:27:11;6.90;;;6.08;;
66371;SDS011;53168;51.146;17.120;2024-02-21T00:29:45;6.55;;;5.79;;
66371;SDS011;53168;51.146;17.120;2024-02-21T00:32:19;6.30;;;5.68;;
66371;SDS011;53168;51.146;17.120;2024-02-21T00:34:55;6.72;;;5.72;;
66371;SDS011;53168;51.146;17.120;2024-02-21T00:37:30;6.68;;;5.65;;
66371;SDS011;53168;51.146;17.120;2024-02-21T00:40:06;6.41;;;5.33;;
66371;SDS011;53168;51.146;17.120;2024-02-21T00:42:41;5.90;;;4.99;;
66371;SDS011;53168;51.146;17.120;2024-02-21T00:45:15;5.51;;;4.80;;
66371;SDS011;53168;51.146;17.120;2024-02-21T00:47:49;5.95;;;5.15;;
66371;SDS011;53168;51.146;17.120;2024-02-21T00:50:23;6.76;;;5.65;;
66371;SDS011;53168;51.146;17.120;2024-02-21T00:53:02;6.53;;;5.43;;
66371;SDS011;53168;51.146;17.120;2024-02-21T00:55:38;6.16;;;5.20;;
66371;SDS011;53168;51.146;17.120;2024-02-21T00:58:13;6.45;;;5.50;;
66371;SDS011;53168;51.146;17.120;2024-02-21T01:00:48;6.59;;;5.49;;
66371;SDS011;53168;51.146;17.120;2024-02-21T01:03:22;7.01;;;5.99;;
66371;SDS011;53168;51.146;17.120;2024-02-21T01:05:57;6.76;;;5.78;;
66371;SDS011;53168;51.146;17.120;2024-02-21T01:08:31;7.33;;;6.05;;
66371;SDS011;53168;51.146;17.120;2024-02-21T01:11:06;7.46;;;6.09;;
66371;SDS011;53168;51.146;17.120;2024-02-21T01:13:40;6.94;;;5.76;;
66371;SDS011;53168;51.146;17.120;2024-02-21T01:16:15;6.89;;;5.95;;
66371;SDS011;53168;51.146;17.120;2024-02-21T01:18:49;6.97;;;5.93;;
66371;SDS011;53168;51.146;17.120;2024-02-21T01:21:24;6.01;;;5.15;;
66371;SDS011;53168;51.146;17.120;2024-02-21T01:23:59;6.39;;;5.50;;
66371;SDS011;53168;51.146;17.120;2024-02-21T01:26:35;7.18;;;6.14;;
66371;SDS011;53168;51.146;17.120;2024-02-21T01:29:10;6.86;;;5.79;;
66371;SDS011;53168;51.146;17.120;2024-02-21T01:31:45;6.52;;;5.51;;
66371;SDS011;53168;51.146;17.120;2024-02-21T01:34:20;5.95;;;5.07;;
66371;SDS011;53168;51.146;17.120;2024-02-21T01:37:01;6.28;;;5.40;;
66371;SDS011;53168;51.146;17.120;2024-02-21T01:39:37;6.95;;;5.89;;
66371;SDS011;53168;51.146;17.120;2024-02-21T01:42:12;7.55;;;6.36;;
66371;SDS011;53168;51.146;17.120;2024-02-21T01:44:47;6.34;;;5.56;;
66371;SDS011;53168;51.146;17.120;2024-02-21T01:47:22;6.93;;;6.14;;
66371;SDS011;53168;51.146;17.120;2024-02-21T01:49:58;6.16;;;5.49;;
66371;SDS011;53168;51.146;17.120;2024-02-21T01:52:35;6.19;;;5.61;;
66371;SDS011;53168;51.146;17.120;2024-02-21T01:55:10;7.16;;;6.33;;
66371;SDS011;53168;51.146;17.120;2024-02-21T01:57:48;6.24;;;5.61;;
66371;SDS011;53168;51.146;17.120;2024-02-21T02:00:23;6.62;;;6.12;;
66371;SDS011;53168;51.146;17.120;2024-02-21T02:02:59;6.40;;;5.93;;
66371;SDS011;53168;51.146;17.120;2024-02-21T02:05:47;6.45;;;5.97;;
66371;SDS011;53168;51.146;17.120;2024-02-21T02:12:05;6.88;;;6.33;;
66371;SDS011;53168;51.146;17.120;2024-02-21T02:14:41;7.52;;;6.81;;
66371;SDS011;53168;51.146;17.120;2024-02-21T02:17:15;7.47;;;6.83;;
66371;SDS011;53168;51.146;17.120;2024-02-21T02:19:50;8.27;;;7.43;;
66371;SDS011;53168;51.146;17.120;2024-02-21T02:22:27;8.22;;;7.34;;
66371;SDS011;53168;51.146;17.120;2024-02-21T02:25:08;8.05;;;7.00;;
66371;SDS011;53168;51.146;17.120;2024-02-21T02:28:05;6.78;;;5.92;;
66371;SDS011;53168;51.146;17.120;2024-02-21T02:30:41;7.72;;;6.84;;
66371;SDS011;53168;51.146;17.120;2024-02-21T02:33:16;8.37;;;7.30;;
66371;SDS011;53168;51.146;17.120;2024-02-21T02:35:52;7.03;;;6.36;;
66371;SDS011;53168;51.146;17.120;2024-02-21T02:38:28;8.02;;;7.31;;
66371;SDS011;53168;51.146;17.120;2024-02-21T02:41:03;7.40;;;6.76;;
66371;SDS011;53168;51.146;17.120;2024-02-21T02:43:38;6.77;;;6.26;;
66371;SDS011;53168;51.146;17.120;2024-02-21T02:46:12;6.48;;;6.05;;
66371;SDS011;53168;51.146;17.120;2024-02-21T02:48:47;6.15;;;5.80;;
66371;SDS011;53168;51.146;17.120;2024-02-21T02:51:22;6.96;;;6.56;;
66371;SDS011;53168;51.146;17.120;2024-02-21T02:53:56;7.14;;;6.65;;
66371;SDS011;53168;51.146;17.120;2024-02-21T02:56:31;6.46;;;6.16;;
66371;SDS011;53168;51.146;17.120;2024-02-21T02:59:06;5.71;;;5.39;;
66371;SDS011;53168;51.146;17.120;2024-02-21T03:01:41;6.17;;;5.84;;
66371;SDS011;53168;51.146;17.120;2024-02-21T03:04:15;6.59;;;6.22;;
66371;SDS011;53168;51.146;17.120;2024-02-21T03:06:50;6.36;;;5.98;;
66371;SDS011;53168;51.146;17.120;2024-02-21T03:09:24;6.18;;;5.85;;
66371;SDS011;53168;51.146;17.120;2024-02-21T03:11:59;6.24;;;5.91;;
66371;SDS011;53168;51.146;17.120;2024-02-21T03:17:00;6.09;;;5.85;;
66371;SDS011;53168;51.146;17.120;2024-02-21T03:19:35;6.25;;;6.10;;
66371;SDS011;53168;51.146;17.120;2024-02-21T03:22:10;6.89;;;6.49;;
66371;SDS011;53168;51.146;17.120;2024-02-21T03:24:45;6.98;;;6.57;;
66371;SDS011;53168;51.146;17.120;2024-02-21T03:27:20;7.45;;;6.94;;
66371;SDS011;53168;51.146;17.120;2024-02-21T03:29:55;6.98;;;6.60;;
66371;SDS011;53168;51.146;17.120;2024-02-21T03:32:29;7.27;;;6.85;;
66371;SDS011;53168;51.146;17.120;2024-02-21T03:35:05;7.66;;;7.11;;
66371;SDS011;53168;51.146;17.120;2024-02-21T03:37:44;7.57;;;7.30;;
66371;SDS011;53168;51.146;17.120;2024-02-21T03:40:19;7.22;;;6.86;;
66371;SDS011;53168;51.146;17.120;2024-02-21T03:42:53;6.89;;;6.55;;
66371;SDS011;53168;51.146;17.120;2024-02-21T03:45:28;7.72;;;7.28;;
66371;SDS011;53168;51.146;17.120;2024-02-21T03:48:03;7.10;;;6.87;;
66371;SDS011;53168;51.146;17.120;2024-02-21T03:50:39;6.68;;;6.52;;
66371;SDS011;53168;51.146;17.120;2024-02-21T03:53:14;6.44;;;6.22;;
66371;SDS011;53168;51.146;17.120;2024-02-21T03:55:48;6.56;;;6.36;;
66371;SDS011;53168;51.146;17.120;2024-02-21T03:58:23;6.78;;;6.55;;
66371;SDS011;53168;51.146;17.120;2024-02-21T04:00:59;6.46;;;6.29;;
66371;SDS011;53168;51.146;17.120;2024-02-21T04:03:35;6.82;;;6.68;;
66371;SDS011;53168;51.146;17.120;2024-02-21T04:06:10;6.63;;;6.42;;
66371;SDS011;53168;51.146;17.120;2024-02-21T04:08:45;7.35;;;7.08;;
66371;SDS011;53168;51.146;17.120;2024-02-21T04:11:20;6.63;;;6.47;;
66371;SDS011;53168;51.146;17.120;2024-02-21T04:13:54;6.64;;;6.45;;
66371;SDS011;53168;51.146;17.120;2024-02-21T04:16:29;6.66;;;6.44;;
66371;SDS011;53168;51.146;17.120;2024-02-21T04:19:03;6.70;;;6.49;;
66371;SDS011;53168;51.146;17.120;2024-02-21T04:34:42;8.00;;;7.71;;
66371;SDS011;53168;51.146;17.120;2024-02-21T04:37:17;8.50;;;8.29;;
66371;SDS011;53168;51.146;17.120;2024-02-21T04:39:51;8.50;;;8.31;;
66371;SDS011;53168;51.146;17.120;2024-02-21T04:42:26;8.06;;;7.90;;
66371;SDS011;53168;51.146;17.120;2024-02-21T04:45:01;7.52;;;7.49;;
66371;SDS011;53168;51.146;17.120;2024-02-21T04:47:37;8.09;;;7.99;;
66371;SDS011;53168;51.146;17.120;2024-02-21T04:50:14;8.60;;;8.36;;
66371;SDS011;53168;51.146;17.120;2024-02-21T04:52:49;7.62;;;7.48;;
66371;SDS011;53168;51.146;17.120;2024-02-21T04:55:24;8.30;;;8.16;;
66371;SDS011;53168;51.146;17.120;2024-02-21T04:57:58;8.27;;;8.18;;
66371;SDS011;53168;51.146;17.120;2024-02-21T05:00:33;9.06;;;8.90;;
66371;SDS011;53168;51.146;17.120;2024-02-21T05:03:08;8.13;;;7.99;;
66371;SDS011;53168;51.146;17.120;2024-02-21T05:05:52;9.21;;;9.17;;
66371;SDS011;53168;51.146;17.120;2024-02-21T05:08:27;10.67;;;10.61;;
66371;SDS011;53168;51.146;17.120;2024-02-21T05:11:08;11.14;;;11.13;;
66371;SDS011;53168;51.146;17.120;2024-02-21T05:13:44;11.21;;;11.21;;
66371;SDS011;53168;51.146;17.120;2024-02-21T05:16:19;11.33;;;11.33;;
66371;SDS011;53168;51.146;17.120;2024-02-21T05:18:54;11.59;;;11.59;;
66371;SDS011;53168;51.146;17.120;2024-02-21T05:21:28;10.87;;;10.85;;
66371;SDS011;53168;51.146;17.120;2024-02-21T05:24:03;10.47;;;10.47;;
66371;SDS011;53168;51.146;17.120;2024-02-21T05:26:38;9.70;;;9.67;;
66371;SDS011;53168;51.146;17.120;2024-02-21T05:29:13;10.05;;;10.03;;
66371;SDS011;53168;51.146;17.120;2024-02-21T05:31:57;9.61;;;9.50;;
66371;SDS011;53168;51.146;17.120;2024-02-21T05:34:32;9.66;;;9.62;;
66371;SDS011;53168;51.146;17.120;2024-02-21T05:37:07;9.17;;;9.16;;
66371;SDS011;53168;51.146;17.120;2024-02-21T05:39:42;9.04;;;9.04;;
66371;SDS011;53168;51.146;17.120;2024-02-21T05:42:16;8.93;;;8.91;;
66371;SDS011;53168;51.146;17.120;2024-02-21T05:44:51;8.64;;;8.64;;
66371;SDS011;53168;51.146;17.120;2024-02-21T05:47:25;8.57;;;8.57;;
66371;SDS011;53168;51.146;17.120;2024-02-21T05:50:00;8.35;;;8.35;;
66371;SDS011;53168;51.146;17.120;2024-02-21T05:52:35;7.84;;;7.81;;
66371;SDS011;53168;51.146;17.120;2024-02-21T05:55:10;8.06;;;8.04;;
66371;SDS011;53168;51.146;17.120;2024-02-21T05:57:46;8.32;;;8.28;;
66371;SDS011;53168;51.146;17.120;2024-02-21T06:00:24;8.07;;;8.04;;
66371;SDS011;53168;51.146;17.120;2024-02-21T06:02:59;8.46;;;8.46;;
66371;SDS011;53168;51.146;17.120;2024-02-21T06:05:37;8.69;;;8.64;;
66371;SDS011;53168;51.146;17.120;2024-02-21T06:08:14;9.62;;;9.62;;
66371;SDS011;53168;51.146;17.120;2024-02-21T06:10:50;9.84;;;9.84;;
66371;SDS011;53168;51.146;17.120;2024-02-21T06:13:24;9.60;;;9.60;;
66371;SDS011;53168;51.146;17.120;2024-02-21T06:15:59;11.14;;;11.14;;
66371;SDS011;53168;51.146;17.120;2024-02-21T06:18:35;10.68;;;10.68;;
66371;SDS011;53168;51.146;17.120;2024-02-21T06:21:10;10.76;;;10.76;;
66371;SDS011;53168;51.146;17.120;2024-02-21T06:23:46;10.20;;;10.20;;
66371;SDS011;53168;51.146;17.120;2024-02-21T06:26:20;9.46;;;9.44;;
66371;SDS011;53168;51.146;17.120;2024-02-21T06:28:55;8.70;;;8.68;;
66371;SDS011;53168;51.146;17.120;2024-02-21T06:31:31;8.97;;;8.96;;
66371;SDS011;53168;51.146;17.120;2024-02-21T06:34:07;8.11;;;8.09;;
66371;SDS011;53168;51.146;17.120;2024-02-21T06:36:44;7.74;;;7.73;;
66371;SDS011;53168;51.146;17.120;2024-02-21T06:39:19;7.97;;;7.92;;
66371;SDS011;53168;51.146;17.120;2024-02-21T06:41:54;7.37;;;7.27;;
66371;SDS011;53168;51.146;17.120;2024-02-21T06:44:32;8.00;;;7.81;;
66371;SDS011;53168;51.146;17.120;2024-02-21T06:47:10;8.07;;;7.94;;
66371;SDS011;53168;51.146;17.120;2024-02-21T06:49:44;7.89;;;7.85;;
66371;SDS011;53168;51.146;17.120;2024-02-21T06:52:23;8.15;;;8.14;;
66371;SDS011;53168;51.146;17.120;2024-02-21T06:54:57;8.28;;;8.27;;
66371;SDS011;53168;51.146;17.120;2024-02-21T06:57:32;10.50;;;10.39;;
66371;SDS011;53168;51.146;17.120;2024-02-21T07:00:08;9.44;;;9.37;;
66371;SDS011;53168;51.146;17.120;2024-02-21T07:02:46;9.12;;;9.10;;
66371;SDS011;53168;51.146;17.120;2024-02-21T07:05:22;8.99;;;8.96;;
66371;SDS011;53168;51.146;17.120;2024-02-21T07:07:57;8.33;;;8.25;;
66371;SDS011;53168;51.146;17.120;2024-02-21T07:10:33;8.15;;;8.03;;
66371;SDS011;53168;51.146;17.120;2024-02-21T07:13:08;8.34;;;8.22;;
66371;SDS011;53168;51.146;17.120;2024-02-21T07:15:43;7.70;;;7.57;;
66371;SDS011;53168;51.146;17.120;2024-02-21T07:18:18;8.40;;;8.31;;
66371;SDS011;53168;51.146;17.120;2024-02-21T07:20:57;8.57;;;8.48;;
66371;SDS011;53168;51.146;17.120;2024-02-21T07:23:31;7.42;;;7.39;;
66371;SDS011;53168;51.146;17.120;2024-02-21T07:26:05;7.31;;;7.27;;
66371;SDS011;53168;51.146;17.120;2024-02-21T07:28:40;7.22;;;7.13;;
66371;SDS011;53168;51.146;17.120;2024-02-21T07:31:16;7.60;;;7.55;;
66371;SDS011;53168;51.146;17.120;2024-02-21T07:33:52;7.98;;;7.98;;
66371;SDS011;53168;51.146;17.120;2024-02-21T07:36:27;8.37;;;8.37;;
66371;SDS011;53168;51.146;17.120;2024-02-21T07:39:03;8.26;;;8.21;;
66371;SDS011;53168;51.146;17.120;2024-02-21T07:41:38;8.30;;;8.26;;
66371;SDS011;53168;51.146;17.120;2024-02-21T07:44:15;8.02;;;7.96;;
66371;SDS011;53168;51.146;17.120;2024-02-21T07:46:50;8.35;;;8.11;;
66371;SDS011;53168;51.146;17.120;2024-02-21T07:49:24;7.43;;;7.21;;
66371;SDS011;53168;51.146;17.120;2024-02-21T07:52:01;7.40;;;7.37;;
66371;SDS011;53168;51.146;17.120;2024-02-21T07:54:37;6.88;;;6.85;;
66371;SDS011;53168;51.146;17.120;2024-02-21T07:57:11;7.66;;;7.56;;
66371;SDS011;53168;51.146;17.120;2024-02-21T07:59:46;7.81;;;7.73;;
66371;SDS011;53168;51.146;17.120;2024-02-21T08:02:21;7.77;;;7.65;;
66371;SDS011;53168;51.146;17.120;2024-02-21T08:04:58;7.66;;;7.59;;
66371;SDS011;53168;51.146;17.120;2024-02-21T08:07:33;7.48;;;7.44;;
66371;SDS011;53168;51.146;17.120;2024-02-21T08:10:08;7.89;;;7.82;;
66371;SDS011;53168;51.146;17.120;2024-02-21T08:12:44;8.03;;;7.91;;
66371;SDS011;53168;51.146;17.120;2024-02-21T08:15:19;8.64;;;8.39;;
66371;SDS011;53168;51.146;17.120;2024-02-21T08:17:58;8.25;;;8.17;;
66371;SDS011;53168;51.146;17.120;2024-02-21T08:20:33;8.95;;;8.80;;
66371;SDS011;53168;51.146;17.120;2024-02-21T08:23:08;8.94;;;8.67;;
66371;SDS011;53168;51.146;17.120;2024-02-21T08:25:43;7.71;;;7.64;;
66371;SDS011;53168;51.146;17.120;2024-02-21T08:28:18;8.13;;;8.06;;
66371;SDS011;53168;51.146;17.120;2024-02-21T08:30:53;8.57;;;8.50;;
66371;SDS011;53168;51.146;17.120;2024-02-21T08:33:27;7.69;;;7.67;;
66371;SDS011;53168;51.146;17.120;2024-02-21T08:36:02;8.93;;;8.84;;
66371;SDS011;53168;51.146;17.120;2024-02-21T08:38:38;8.65;;;8.61;;
66371;SDS011;53168;51.146;17.120;2024-02-21T08:41:13;8.28;;;8.27;;
66371;SDS011;53168;51.146;17.120;2024-02-21T08:43:48;8.33;;;8.29;;
66371;SDS011;53168;51.146;17.120;2024-02-21T08:46:24;7.80;;;7.73;;
66371;SDS011;53168;51.146;17.120;2024-02-21T08:49:00;8.60;;;8.41;;
66371;SDS011;53168;51.146;17.120;2024-02-21T08:51:35;8.66;;;8.53;;
66371;SDS011;53168;51.146;17.120;2024-02-21T08:54:09;9.03;;;8.91;;
66371;SDS011;53168;51.146;17.120;2024-02-21T08:56:44;9.78;;;9.64;;
66371;SDS011;53168;51.146;17.120;2024-02-21T08:59:19;10.59;;;10.45;;
66371;SDS011;53168;51.146;17.120;2024-02-21T09:01:54;11.36;;;11.23;;
66371;SDS011;53168;51.146;17.120;2024-02-21T09:04:29;11.27;;;11.02;;
66371;SDS011;53168;51.146;17.120;2024-02-21T09:07:04;9.13;;;8.93;;
66371;SDS011;53168;51.146;17.120;2024-02-21T09:09:38;8.51;;;8.46;;
66371;SDS011;53168;51.146;17.120;2024-02-21T09:12:13;9.67;;;9.56;;
66371;SDS011;53168;51.146;17.120;2024-02-21T09:14:47;9.73;;;9.63;;
66371;SDS011;53168;51.146;17.120;2024-02-21T09:17:22;12.31;;;12.23;;
66371;SDS011;53168;51.146;17.120;2024-02-21T09:22:29;14.21;;;13.69;;
66371;SDS011;53168;51.146;17.120;2024-02-21T09:25:02;11.59;;;11.47;;
66371;SDS011;53168;51.146;17.120;2024-02-21T09:27:34;12.41;;;12.39;;
66371;SDS011;53168;51.146;17.120;2024-02-21T09:30:07;12.06;;;12.04;;
66371;SDS011;53168;51.146;17.120;2024-02-21T09:32:41;9.74;;;9.73;;
66371;SDS011;53168;51.146;17.120;2024-02-21T09:35:12;10.39;;;10.23;;
66371;SDS011;53168;51.146;17.120;2024-02-21T09:37:43;10.59;;;10.52;;
66371;SDS011;53168;51.146;17.120;2024-02-21T09:40:15;11.18;;;11.18;;
66371;SDS011;53168;51.146;17.120;2024-02-21T09:42:47;11.92;;;11.85;;
66371;SDS011;53168;51.146;17.120;2024-02-21T09:45:23;14.33;;;14.21;;
66371;SDS011;53168;51.146;17.120;2024-02-21T09:48:02;12.37;;;12.29;;
66371;SDS011;53168;51.146;17.120;2024-02-21T09:50:57;10.52;;;10.40;;
66371;SDS011;53168;51.146;17.120;2024-02-21T09:53:31;10.87;;;10.81;;
66371;SDS011;53168;51.146;17.120;2024-02-21T09:56:06;9.80;;;9.74;;
66371;SDS011;53168;51.146;17.120;2024-02-21T09:58:42;8.96;;;8.85;;
66371;SDS011;53168;51.146;17.120;2024-02-21T10:01:14;9.12;;;9.06;;
66371;SDS011;53168;51.146;17.120;2024-02-21T10:04:01;9.12;;;9.01;;
66371;SDS011;53168;51.146;17.120;2024-02-21T10:06:33;8.84;;;8.74;;
66371;SDS011;53168;51.146;17.120;2024-02-21T10:09:06;9.70;;;9.46;;
66371;SDS011;53168;51.146;17.120;2024-02-21T10:11:37;9.09;;;8.84;;
66371;SDS011;53168;51.146;17.120;2024-02-21T10:14:08;9.96;;;9.59;;
66371;SDS011;53168;51.146;17.120;2024-02-21T10:16:39;9.73;;;9.62;;
66371;SDS011;53168;51.146;17.120;2024-02-21T10:19:16;9.45;;;9.25;;
66371;SDS011;53168;51.146;17.120;2024-02-21T10:22:05;9.70;;;9.45;;
66371;SDS011;53168;51.146;17.120;2024-02-21T10:24:38;9.24;;;9.15;;
66371;SDS011;53168;51.146;17.120;2024-02-21T10:27:10;10.48;;;10.16;;
66371;SDS011;53168;51.146;17.120;2024-02-21T10:29:41;10.21;;;9.92;;
66371;SDS011;53168;51.146;17.120;2024-02-21T10:32:18;10.89;;;10.57;;
66371;SDS011;53168;51.146;17.120;2024-02-21T10:34:50;10.00;;;9.83;;
66371;SDS011;53168;51.146;17.120;2024-02-21T10:50:21;11.62;;;11.13;;
66371;SDS011;53168;51.146;17.120;2024-02-21T10:53:05;11.60;;;11.44;;
66371;SDS011;53168;51.146;17.120;2024-02-21T10:55:56;11.53;;;11.39;;
66371;SDS011;53168;51.146;17.120;2024-02-21T10:58:43;10.44;;;10.28;;
66371;SDS011;53168;51.146;17.120;2024-02-21T11:05:56;9.67;;;9.51;;
66371;SDS011;53168;51.146;17.120;2024-02-21T11:08:35;10.07;;;9.88;;
66371;SDS011;53168;51.146;17.120;2024-02-21T11:11:11;9.47;;;9.38;;
66371;SDS011;53168;51.146;17.120;2024-02-21T11:14:06;9.79;;;9.68;;
66371;SDS011;53168;51.146;17.120;2024-02-21T11:16:48;10.77;;;10.64;;
66371;SDS011;53168;51.146;17.120;2024-02-21T11:19:24;12.80;;;12.62;;
66371;SDS011;53168;51.146;17.120;2024-02-21T11:22:01;13.93;;;13.69;;
66371;SDS011;53168;51.146;17.120;2024-02-21T11:24:47;14.68;;;14.33;;
66371;SDS011;53168;51.146;17.120;2024-02-21T11:27:23;12.40;;;12.13;;
66371;SDS011;53168;51.146;17.120;2024-02-21T11:29:58;15.42;;;14.84;;
66371;SDS011;53168;51.146;17.120;2024-02-21T11:32:35;12.37;;;11.96;;
66371;SDS011;53168;51.146;17.120;2024-02-21T11:35:09;12.12;;;11.75;;
66371;SDS011;53168;51.146;17.120;2024-02-21T11:37:54;10.47;;;10.37;;
66371;SDS011;53168;51.146;17.120;2024-02-21T11:40:39;10.36;;;10.27;;
66371;SDS011;53168;51.146;17.120;2024-02-21T11:43:16;8.68;;;8.59;;
66371;SDS011;53168;51.146;17.120;2024-02-21T11:45:51;9.50;;;9.48;;
66371;SDS011;53168;51.146;17.120;2024-02-21T11:48:34;9.47;;;9.38;;
66371;SDS011;53168;51.146;17.120;2024-02-21T11:51:09;8.89;;;8.83;;
66371;SDS011;53168;51.146;17.120;2024-02-21T11:53:52;9.95;;;9.91;;
66371;SDS011;53168;51.146;17.120;2024-02-21T11:56:30;11.29;;;11.22;;
66371;SDS011;53168;51.146;17.120;2024-02-21T11:59:07;10.55;;;10.47;;
66371;SDS011;53168;51.146;17.120;2024-02-21T12:01:42;10.93;;;10.83;;
66371;SDS011;53168;51.146;17.120;2024-02-21T12:04:17;12.36;;;12.26;;
66371;SDS011;53168;51.146;17.120;2024-02-21T12:06:54;12.49;;;12.33;;
66371;SDS011;53168;51.146;17.120;2024-02-21T12:09:29;13.37;;;13.16;;
66371;SDS011;53168;51.146;17.120;2024-02-21T12:12:05;12.77;;;12.57;;
66371;SDS011;53168;51.146;17.120;2024-02-21T12:14:41;13.77;;;13.50;;
66371;SDS011;53168;51.146;17.120;2024-02-21T12:17:15;12.69;;;12.47;;
66371;SDS011;53168;51.146;17.120;2024-02-21T12:32:56;12.31;;;12.28;;
66371;SDS011;53168;51.146;17.120;2024-02-21T12:35:47;12.83;;;12.78;;
66371;SDS011;53168;51.146;17.120;2024-02-21T12:38:26;12.37;;;12.25;;
66371;SDS011;53168;51.146;17.120;2024-02-21T12:41:02;10.87;;;10.82;;
66371;SDS011;53168;51.146;17.120;2024-02-21T12:43:40;10.96;;;10.91;;
66371;SDS011;53168;51.146;17.120;2024-02-21T12:46:15;9.86;;;9.84;;
66371;SDS011;53168;51.146;17.120;2024-02-21T12:48:49;9.83;;;9.77;;
66371;SDS011;53168;51.146;17.120;2024-02-21T12:51:24;9.80;;;9.79;;
66371;SDS011;53168;51.146;17.120;2024-02-21T12:53:59;10.80;;;10.77;;
66371;SDS011;53168;51.146;17.120;2024-02-21T12:56:34;10.61;;;10.57;;
66371;SDS011;53168;51.146;17.120;2024-02-21T12:59:09;9.74;;;9.62;;
66371;SDS011;53168;51.146;17.120;2024-02-21T13:01:43;10.74;;;10.64;;
66371;SDS011;53168;51.146;17.120;2024-02-21T13:04:19;11.56;;;11.52;;
66371;SDS011;53168;51.146;17.120;2024-02-21T13:06:54;10.28;;;10.27;;
66371;SDS011;53168;51.146;17.120;2024-02-21T13:09:29;10.87;;;10.69;;
66371;SDS011;53168;51.146;17.120;2024-02-21T13:12:04;11.98;;;11.83;;
66371;SDS011;53168;51.146;17.120;2024-02-21T13:14:40;11.63;;;11.50;;
66371;SDS011;53168;51.146;17.120;2024-02-21T13:17:15;10.26;;;10.20;;
66371;SDS011;53168;51.146;17.120;2024-02-21T13:19:52;11.40;;;11.32;;
66371;SDS011;53168;51.146;17.120;2024-02-21T13:22:27;11.23;;;11.16;;
66371;SDS011;53168;51.146;17.120;2024-02-21T13:25:02;9.30;;;9.30;;
66371;SDS011;53168;51.146;17.120;2024-02-21T13:27:49;8.90;;;8.86;;
66371;SDS011;53168;51.146;17.120;2024-02-21T13:30:23;7.99;;;7.99;;
66371;SDS011;53168;51.146;17.120;2024-02-21T13:32:58;7.60;;;7.60;;
66371;SDS011;53168;51.146;17.120;2024-02-21T13:35:33;8.32;;;8.29;;
66371;SDS011;53168;51.146;17.120;2024-02-21T13:38:09;7.62;;;7.61;;
66371;SDS011;53168;51.146;17.120;2024-02-21T13:40:44;8.32;;;8.31;;
66371;SDS011;53168;51.146;17.120;2024-02-21T13:43:20;9.44;;;9.43;;
66371;SDS011;53168;51.146;17.120;2024-02-21T13:45:57;9.03;;;8.92;;
66371;SDS011;53168;51.146;17.120;2024-02-21T13:48:37;9.44;;;9.38;;
66371;SDS011;53168;51.146;17.120;2024-02-21T13:51:27;9.08;;;8.99;;
66371;SDS011;53168;51.146;17.120;2024-02-21T13:54:03;8.60;;;8.58;;
66371;SDS011;53168;51.146;17.120;2024-02-21T13:56:39;10.22;;;10.19;;
66371;SDS011;53168;51.146;17.120;2024-02-21T13:59:15;10.18;;;10.12;;
66371;SDS011;53168;51.146;17.120;2024-02-21T14:01:50;10.35;;;10.25;;
66371;SDS011;53168;51.146;17.120;2024-02-21T14:04:25;10.82;;;10.68;;
66371;SDS011;53168;51.146;17.120;2024-02-21T14:07:01;12.94;;;12.79;;
66371;SDS011;53168;51.146;17.120;2024-02-21T14:09:37;13.97;;;13.83;;
66371;SDS011;53168;51.146;17.120;2024-02-21T14:12:11;11.44;;;11.33;;
66371;SDS011;53168;51.146;17.120;2024-02-21T14:14:50;10.23;;;10.12;;
66371;SDS011;53168;51.146;17.120;2024-02-21T14:17:26;10.00;;;9.91;;
66371;SDS011;53168;51.146;17.120;2024-02-21T14:20:01;9.32;;;9.24;;
66371;SDS011;53168;51.146;17.120;2024-02-21T14:22:38;9.64;;;9.57;;
66371;SDS011;53168;51.146;17.120;2024-02-21T14:25:13;9.87;;;9.75;;
66371;SDS011;53168;51.146;17.120;2024-02-21T14:27:48;10.09;;;10.04;;
66371;SDS011;53168;51.146;17.120;2024-02-21T14:30:22;10.16;;;10.13;;
66371;SDS011;53168;51.146;17.120;2024-02-21T14:32:57;10.17;;;10.04;;
66371;SDS011;53168;51.146;17.120;2024-02-21T14:35:32;9.35;;;9.25;;
66371;SDS011;53168;51.146;17.120;2024-02-21T14:38:07;9.43;;;9.39;;
66371;SDS011;53168;51.146;17.120;2024-02-21T14:40:43;9.00;;;8.96;;
66371;SDS011;53168;51.146;17.120;2024-02-21T14:43:19;9.78;;;9.67;;
66371;SDS011;53168;51.146;17.120;2024-02-21T14:46:05;9.29;;;9.29;;
66371;SDS011;53168;51.146;17.120;2024-02-21T14:48:42;9.43;;;9.41;;
66371;SDS011;53168;51.146;17.120;2024-02-21T14:51:17;9.34;;;9.31;;
66371;SDS011;53168;51.146;17.120;2024-02-21T14:54:17;10.57;;;9.97;;
66371;SDS011;53168;51.146;17.120;2024-02-21T14:56:52;9.41;;;9.32;;
66371;SDS011;53168;51.146;17.120;2024-02-21T14:59:38;9.73;;;9.65;;
66371;SDS011;53168;51.146;17.120;2024-02-21T15:02:19;10.46;;;10.29;;
66371;SDS011;53168;51.146;17.120;2024-02-21T15:05:05;10.96;;;10.88;;
66371;SDS011;53168;51.146;17.120;2024-02-21T15:07:42;9.41;;;9.37;;
66371;SDS011;53168;51.146;17.120;2024-02-21T15:10:17;9.65;;;9.59;;
66371;SDS011;53168;51.146;17.120;2024-02-21T15:12:52;9.29;;;9.29;;
66371;SDS011;53168;51.146;17.120;2024-02-21T15:15:27;9.14;;;9.14;;
66371;SDS011;53168;51.146;17.120;2024-02-21T15:18:03;9.43;;;9.43;;
66371;SDS011;53168;51.146;17.120;2024-02-21T15:20:38;9.03;;;9.02;;
66371;SDS011;53168;51.146;17.120;2024-02-21T15:23:13;9.01;;;9.01;;
66371;SDS011;53168;51.146;17.120;2024-02-21T15:25:50;8.83;;;8.83;;
66371;SDS011;53168;51.146;17.120;2024-02-21T15:28:25;9.57;;;9.56;;
66371;SDS011;53168;51.146;17.120;2024-02-21T15:31:00;10.08;;;10.06;;
66371;SDS011;53168;51.146;17.120;2024-02-21T15:33:40;9.55;;;9.55;;
66371;SDS011;53168;51.146;17.120;2024-02-21T15:36:24;10.45;;;10.45;;
66371;SDS011;53168;51.146;17.120;2024-02-21T15:39:03;11.40;;;11.35;;
66371;SDS011;53168;51.146;17.120;2024-02-21T15:41:41;11.82;;;11.70;;
66371;SDS011;53168;51.146;17.120;2024-02-21T15:44:17;11.11;;;11.05;;
66371;SDS011;53168;51.146;17.120;2024-02-21T15:46:52;11.51;;;11.45;;
66371;SDS011;53168;51.146;17.120;2024-02-21T15:49:29;11.68;;;11.57;;
66371;SDS011;53168;51.146;17.120;2024-02-21T15:52:08;10.32;;;10.23;;
66371;SDS011;53168;51.146;17.120;2024-02-21T15:54:46;9.95;;;9.88;;
66371;SDS011;53168;51.146;17.120;2024-02-21T15:57:21;10.73;;;10.67;;
66371;SDS011;53168;51.146;17.120;2024-02-21T15:59:58;10.25;;;10.22;;
66371;SDS011;53168;51.146;17.120;2024-02-21T16:02:38;10.53;;;10.47;;
66371;SDS011;53168;51.146;17.120;2024-02-21T16:05:13;10.22;;;10.15;;
66371;SDS011;53168;51.146;17.120;2024-02-21T16:07:48;10.14;;;10.04;;
66371;SDS011;53168;51.146;17.120;2024-02-21T16:10:32;9.99;;;9.92;;
66371;SDS011;53168;51.146;17.120;2024-02-21T16:13:07;10.33;;;10.30;;